sensor_id;sensor_type;location;lat;lon;timestamp;P1;durP1;ratioP1;P2;durP2;ratioP2
62362;SDS011;48396;48.426;1.500;2022-12-20T00:01:14;11.50;;;4.68;;
62362;SDS011;48396;48.426;1.500;2022-12-20T00:03:41;13.85;;;4.75;;
62362;SDS011;48396;48.426;1.500;2022-12-20T00:06:08;10.63;;;4.15;;
62362;SDS011;48396;48.426;1.500;2022-12-20T00:08:35;11.50;;;4.65;;
62362;SDS011;48396;48.426;1.500;2022-12-20T00:11:02;10.15;;;4.25;;
62362;SDS011;48396;48.426;1.500;2022-12-20T00:13:29;10.10;;;4.10;;
62362;SDS011;48396;48.426;1.500;2022-12-20T00:18:35;9.18;;;4.07;;
62362;SDS011;48396;48.426;1.500;2022-12-20T00:21:02;11.13;;;4.47;;
62362;SDS011;48396;48.426;1.500;2022-12-20T00:23:29;12.38;;;4.80;;
62362;SDS011;48396;48.426;1.500;2022-12-20T00:28:33;10.02;;;4.30;;
62362;SDS011;48396;48.426;1.500;2022-12-20T00:30:59;9.60;;;3.95;;
62362;SDS011;48396;48.426;1.500;2022-12-20T00:33:25;10.45;;;4.13;;
62362;SDS011;48396;48.426;1.500;2022-12-20T00:35:51;10.98;;;4.45;;
62362;SDS011;48396;48.426;1.500;2022-12-20T00:38:19;10.13;;;4.10;;
62362;SDS011;48396;48.426;1.500;2022-12-20T00:40:44;13.02;;;4.18;;
62362;SDS011;48396;48.426;1.500;2022-12-20T00:43:10;8.88;;;3.90;;
62362;SDS011;48396;48.426;1.500;2022-12-20T00:45:37;7.90;;;3.67;;
62362;SDS011;48396;48.426;1.500;2022-12-20T00:48:03;9.95;;;4.05;;
62362;SDS011;48396;48.426;1.500;2022-12-20T00:50:29;6.65;;;3.15;;
62362;SDS011;48396;48.426;1.500;2022-12-20T00:52:54;8.32;;;3.88;;
62362;SDS011;48396;48.426;1.500;2022-12-20T00:55:20;12.00;;;4.40;;
62362;SDS011;48396;48.426;1.500;2022-12-20T00:57:46;10.43;;;3.95;;
62362;SDS011;48396;48.426;1.500;2022-12-20T01:00:12;8.05;;;3.55;;
62362;SDS011;48396;48.426;1.500;2022-12-20T01:02:38;7.75;;;3.55;;
62362;SDS011;48396;48.426;1.500;2022-12-20T01:05:03;6.80;;;3.20;;
62362;SDS011;48396;48.426;1.500;2022-12-20T01:07:30;8.30;;;3.90;;
62362;SDS011;48396;48.426;1.500;2022-12-20T01:09:57;6.70;;;3.45;;
62362;SDS011;48396;48.426;1.500;2022-12-20T01:12:22;9.60;;;3.70;;
62362;SDS011;48396;48.426;1.500;2022-12-20T01:14:48;7.20;;;3.33;;
62362;SDS011;48396;48.426;1.500;2022-12-20T01:17:14;9.95;;;3.88;;
62362;SDS011;48396;48.426;1.500;2022-12-20T01:19:40;9.70;;;3.50;;
62362;SDS011;48396;48.426;1.500;2022-12-20T01:22:06;6.32;;;3.55;;
62362;SDS011;48396;48.426;1.500;2022-12-20T01:24:32;6.93;;;3.33;;
62362;SDS011;48396;48.426;1.500;2022-12-20T01:26:57;7.97;;;3.22;;
62362;SDS011;48396;48.426;1.500;2022-12-20T01:29:23;9.85;;;3.88;;
62362;SDS011;48396;48.426;1.500;2022-12-20T01:31:49;9.15;;;3.58;;
62362;SDS011;48396;48.426;1.500;2022-12-20T01:34:14;7.05;;;2.90;;
62362;SDS011;48396;48.426;1.500;2022-12-20T01:36:40;8.55;;;3.35;;
62362;SDS011;48396;48.426;1.500;2022-12-20T01:39:07;6.80;;;3.22;;
62362;SDS011;48396;48.426;1.500;2022-12-20T01:41:37;10.55;;;3.50;;
62362;SDS011;48396;48.426;1.500;2022-12-20T01:44:06;7.07;;;3.38;;
62362;SDS011;48396;48.426;1.500;2022-12-20T01:46:50;7.18;;;3.17;;
62362;SDS011;48396;48.426;1.500;2022-12-20T01:52:06;7.43;;;3.35;;
62362;SDS011;48396;48.426;1.500;2022-12-20T01:54:38;7.82;;;3.17;;
62362;SDS011;48396;48.426;1.500;2022-12-20T02:00:13;6.88;;;3.35;;
62362;SDS011;48396;48.426;1.500;2022-12-20T02:02:40;7.18;;;3.08;;
62362;SDS011;48396;48.426;1.500;2022-12-20T02:05:08;7.57;;;2.80;;
62362;SDS011;48396;48.426;1.500;2022-12-20T02:07:34;8.35;;;3.00;;
62362;SDS011;48396;48.426;1.500;2022-12-20T02:10:02;8.50;;;3.42;;
62362;SDS011;48396;48.426;1.500;2022-12-20T02:12:47;6.40;;;2.97;;
62362;SDS011;48396;48.426;1.500;2022-12-20T02:15:24;7.93;;;3.22;;
62362;SDS011;48396;48.426;1.500;2022-12-20T02:32:03;7.30;;;3.22;;
62362;SDS011;48396;48.426;1.500;2022-12-20T02:34:41;6.57;;;3.03;;
62362;SDS011;48396;48.426;1.500;2022-12-20T02:37:09;6.57;;;2.90;;
62362;SDS011;48396;48.426;1.500;2022-12-20T02:39:35;6.35;;;3.38;;
62362;SDS011;48396;48.426;1.500;2022-12-20T02:42:05;8.90;;;3.13;;
62362;SDS011;48396;48.426;1.500;2022-12-20T02:44:34;8.55;;;3.33;;
62362;SDS011;48396;48.426;1.500;2022-12-20T02:48:08;5.18;;;2.30;;
62362;SDS011;48396;48.426;1.500;2022-12-20T02:50:44;4.63;;;2.67;;
62362;SDS011;48396;48.426;1.500;2022-12-20T02:53:14;5.30;;;2.53;;
62362;SDS011;48396;48.426;1.500;2022-12-20T02:55:59;6.05;;;2.75;;
62362;SDS011;48396;48.426;1.500;2022-12-20T02:58:52;7.57;;;3.10;;
62362;SDS011;48396;48.426;1.500;2022-12-20T03:01:29;7.60;;;2.97;;
62362;SDS011;48396;48.426;1.500;2022-12-20T03:03:58;6.93;;;2.80;;
62362;SDS011;48396;48.426;1.500;2022-12-20T03:06:26;6.88;;;2.70;;
62362;SDS011;48396;48.426;1.500;2022-12-20T03:08:52;6.80;;;2.63;;
62362;SDS011;48396;48.426;1.500;2022-12-20T03:11:17;5.97;;;2.60;;
62362;SDS011;48396;48.426;1.500;2022-12-20T03:13:44;5.32;;;2.55;;
62362;SDS011;48396;48.426;1.500;2022-12-20T03:16:10;4.18;;;2.45;;
62362;SDS011;48396;48.426;1.500;2022-12-20T03:18:36;4.75;;;2.90;;
62362;SDS011;48396;48.426;1.500;2022-12-20T03:21:01;6.95;;;2.70;;
62362;SDS011;48396;48.426;1.500;2022-12-20T03:23:27;6.25;;;2.60;;
62362;SDS011;48396;48.426;1.500;2022-12-20T03:25:53;6.80;;;2.80;;
62362;SDS011;48396;48.426;1.500;2022-12-20T03:28:19;5.60;;;2.63;;
62362;SDS011;48396;48.426;1.500;2022-12-20T03:30:45;6.25;;;2.67;;
62362;SDS011;48396;48.426;1.500;2022-12-20T03:33:11;4.63;;;2.33;;
62362;SDS011;48396;48.426;1.500;2022-12-20T03:35:37;6.07;;;2.63;;
62362;SDS011;48396;48.426;1.500;2022-12-20T03:38:03;6.90;;;2.42;;
62362;SDS011;48396;48.426;1.500;2022-12-20T03:40:29;6.47;;;2.65;;
62362;SDS011;48396;48.426;1.500;2022-12-20T03:42:55;7.63;;;3.15;;
62362;SDS011;48396;48.426;1.500;2022-12-20T03:45:20;9.02;;;3.30;;
62362;SDS011;48396;48.426;1.500;2022-12-20T03:47:46;7.35;;;3.20;;
62362;SDS011;48396;48.426;1.500;2022-12-20T03:50:12;7.25;;;3.22;;
62362;SDS011;48396;48.426;1.500;2022-12-20T03:52:38;6.72;;;2.42;;
62362;SDS011;48396;48.426;1.500;2022-12-20T03:55:04;9.85;;;2.90;;
62362;SDS011;48396;48.426;1.500;2022-12-20T03:57:30;8.18;;;2.75;;
62362;SDS011;48396;48.426;1.500;2022-12-20T03:59:56;7.15;;;2.47;;
62362;SDS011;48396;48.426;1.500;2022-12-20T04:02:22;3.75;;;2.42;;
62362;SDS011;48396;48.426;1.500;2022-12-20T04:04:48;8.02;;;2.67;;
62362;SDS011;48396;48.426;1.500;2022-12-20T04:07:14;9.07;;;2.90;;
62362;SDS011;48396;48.426;1.500;2022-12-20T04:09:40;7.43;;;2.30;;
62362;SDS011;48396;48.426;1.500;2022-12-20T04:12:06;5.40;;;2.60;;
62362;SDS011;48396;48.426;1.500;2022-12-20T04:14:32;10.35;;;2.70;;
62362;SDS011;48396;48.426;1.500;2022-12-20T04:16:58;6.53;;;2.80;;
62362;SDS011;48396;48.426;1.500;2022-12-20T04:19:24;5.45;;;2.10;;
62362;SDS011;48396;48.426;1.500;2022-12-20T04:21:49;7.70;;;2.80;;
62362;SDS011;48396;48.426;1.500;2022-12-20T04:24:15;5.38;;;2.47;;
62362;SDS011;48396;48.426;1.500;2022-12-20T04:26:41;7.47;;;2.85;;
62362;SDS011;48396;48.426;1.500;2022-12-20T04:29:07;5.60;;;2.30;;
62362;SDS011;48396;48.426;1.500;2022-12-20T04:31:33;4.30;;;2.20;;
62362;SDS011;48396;48.426;1.500;2022-12-20T04:34:00;2.83;;;1.70;;
62362;SDS011;48396;48.426;1.500;2022-12-20T04:36:26;5.93;;;2.50;;
62362;SDS011;48396;48.426;1.500;2022-12-20T04:38:52;4.22;;;2.28;;
62362;SDS011;48396;48.426;1.500;2022-12-20T04:41:19;4.72;;;2.50;;
62362;SDS011;48396;48.426;1.500;2022-12-20T04:43:50;5.22;;;2.30;;
62362;SDS011;48396;48.426;1.500;2022-12-20T04:46:17;6.47;;;2.22;;
62362;SDS011;48396;48.426;1.500;2022-12-20T04:48:43;5.55;;;2.20;;
62362;SDS011;48396;48.426;1.500;2022-12-20T04:51:09;3.60;;;2.30;;
62362;SDS011;48396;48.426;1.500;2022-12-20T04:53:35;4.47;;;2.30;;
62362;SDS011;48396;48.426;1.500;2022-12-20T04:56:23;6.18;;;1.77;;
62362;SDS011;48396;48.426;1.500;2022-12-20T04:58:52;6.05;;;2.08;;
62362;SDS011;48396;48.426;1.500;2022-12-20T05:01:19;4.43;;;2.20;;
62362;SDS011;48396;48.426;1.500;2022-12-20T05:03:46;5.15;;;2.28;;
62362;SDS011;48396;48.426;1.500;2022-12-20T05:06:13;4.50;;;2.42;;
62362;SDS011;48396;48.426;1.500;2022-12-20T05:08:39;4.45;;;1.98;;
62362;SDS011;48396;48.426;1.500;2022-12-20T05:11:05;5.22;;;2.30;;
62362;SDS011;48396;48.426;1.500;2022-12-20T05:13:31;5.88;;;2.17;;
62362;SDS011;48396;48.426;1.500;2022-12-20T05:15:58;5.43;;;2.25;;
62362;SDS011;48396;48.426;1.500;2022-12-20T05:18:25;2.95;;;1.90;;
62362;SDS011;48396;48.426;1.500;2022-12-20T05:20:58;5.10;;;2.25;;
62362;SDS011;48396;48.426;1.500;2022-12-20T05:23:44;3.60;;;2.08;;
62362;SDS011;48396;48.426;1.500;2022-12-20T05:26:30;8.20;;;2.50;;
62362;SDS011;48396;48.426;1.500;2022-12-20T05:28:57;2.72;;;2.03;;
62362;SDS011;48396;48.426;1.500;2022-12-20T05:31:23;4.28;;;2.15;;
62362;SDS011;48396;48.426;1.500;2022-12-20T05:33:49;6.82;;;2.33;;
62362;SDS011;48396;48.426;1.500;2022-12-20T05:36:15;3.67;;;2.05;;
62362;SDS011;48396;48.426;1.500;2022-12-20T05:38:41;3.92;;;1.92;;
62362;SDS011;48396;48.426;1.500;2022-12-20T05:41:07;5.72;;;2.40;;
62362;SDS011;48396;48.426;1.500;2022-12-20T05:43:32;7.22;;;2.05;;
62362;SDS011;48396;48.426;1.500;2022-12-20T05:45:58;4.40;;;2.15;;
62362;SDS011;48396;48.426;1.500;2022-12-20T05:48:24;4.78;;;2.17;;
62362;SDS011;48396;48.426;1.500;2022-12-20T05:50:50;4.07;;;2.22;;
62362;SDS011;48396;48.426;1.500;2022-12-20T05:53:16;6.35;;;2.42;;
62362;SDS011;48396;48.426;1.500;2022-12-20T05:55:49;4.93;;;2.50;;
62362;SDS011;48396;48.426;1.500;2022-12-20T05:58:16;4.72;;;2.60;;
62362;SDS011;48396;48.426;1.500;2022-12-20T06:00:42;6.43;;;2.50;;
62362;SDS011;48396;48.426;1.500;2022-12-20T06:03:09;4.93;;;2.40;;
62362;SDS011;48396;48.426;1.500;2022-12-20T06:05:36;3.80;;;2.25;;
62362;SDS011;48396;48.426;1.500;2022-12-20T06:08:05;4.82;;;2.10;;
62362;SDS011;48396;48.426;1.500;2022-12-20T06:10:31;5.75;;;2.22;;
62362;SDS011;48396;48.426;1.500;2022-12-20T06:12:59;6.68;;;2.70;;
62362;SDS011;48396;48.426;1.500;2022-12-20T06:15:25;4.57;;;2.20;;
62362;SDS011;48396;48.426;1.500;2022-12-20T06:17:51;5.47;;;2.40;;
62362;SDS011;48396;48.426;1.500;2022-12-20T06:20:17;6.60;;;2.78;;
62362;SDS011;48396;48.426;1.500;2022-12-20T06:22:43;7.85;;;3.13;;
62362;SDS011;48396;48.426;1.500;2022-12-20T06:25:09;6.25;;;2.63;;
62362;SDS011;48396;48.426;1.500;2022-12-20T06:27:36;5.25;;;2.20;;
62362;SDS011;48396;48.426;1.500;2022-12-20T06:30:05;5.47;;;2.22;;
62362;SDS011;48396;48.426;1.500;2022-12-20T06:32:32;5.20;;;2.35;;
62362;SDS011;48396;48.426;1.500;2022-12-20T06:34:58;8.68;;;3.20;;
62362;SDS011;48396;48.426;1.500;2022-12-20T06:37:24;10.38;;;2.95;;
62362;SDS011;48396;48.426;1.500;2022-12-20T06:39:49;5.90;;;2.40;;
62362;SDS011;48396;48.426;1.500;2022-12-20T06:42:15;7.90;;;3.10;;
62362;SDS011;48396;48.426;1.500;2022-12-20T06:44:41;8.70;;;3.20;;
62362;SDS011;48396;48.426;1.500;2022-12-20T06:47:07;6.90;;;2.78;;
62362;SDS011;48396;48.426;1.500;2022-12-20T06:49:32;5.72;;;2.70;;
62362;SDS011;48396;48.426;1.500;2022-12-20T06:51:58;6.00;;;2.40;;
62362;SDS011;48396;48.426;1.500;2022-12-20T06:54:24;6.55;;;2.45;;
62362;SDS011;48396;48.426;1.500;2022-12-20T06:56:50;8.18;;;2.65;;
62362;SDS011;48396;48.426;1.500;2022-12-20T06:59:16;6.82;;;2.53;;
62362;SDS011;48396;48.426;1.500;2022-12-20T07:01:41;6.78;;;2.25;;
62362;SDS011;48396;48.426;1.500;2022-12-20T07:04:07;2.70;;;1.90;;
62362;SDS011;48396;48.426;1.500;2022-12-20T07:06:33;6.43;;;2.00;;
62362;SDS011;48396;48.426;1.500;2022-12-20T07:08:59;6.00;;;2.33;;
62362;SDS011;48396;48.426;1.500;2022-12-20T07:11:24;5.88;;;2.10;;
62362;SDS011;48396;48.426;1.500;2022-12-20T07:13:53;6.40;;;2.53;;
62362;SDS011;48396;48.426;1.500;2022-12-20T07:16:20;6.78;;;2.05;;
62362;SDS011;48396;48.426;1.500;2022-12-20T07:18:51;5.57;;;2.13;;
62362;SDS011;48396;48.426;1.500;2022-12-20T07:21:18;5.53;;;2.17;;
62362;SDS011;48396;48.426;1.500;2022-12-20T07:23:45;5.75;;;2.40;;
62362;SDS011;48396;48.426;1.500;2022-12-20T07:26:11;8.25;;;2.50;;
62362;SDS011;48396;48.426;1.500;2022-12-20T07:28:38;6.18;;;2.10;;
62362;SDS011;48396;48.426;1.500;2022-12-20T07:31:04;6.70;;;2.25;;
62362;SDS011;48396;48.426;1.500;2022-12-20T07:33:30;4.30;;;2.00;;
62362;SDS011;48396;48.426;1.500;2022-12-20T07:36:07;5.00;;;2.05;;
62362;SDS011;48396;48.426;1.500;2022-12-20T07:38:37;9.25;;;2.47;;
62362;SDS011;48396;48.426;1.500;2022-12-20T07:41:10;2.85;;;1.90;;
62362;SDS011;48396;48.426;1.500;2022-12-20T07:43:41;3.67;;;1.70;;
62362;SDS011;48396;48.426;1.500;2022-12-20T07:46:07;3.78;;;2.00;;
62362;SDS011;48396;48.426;1.500;2022-12-20T07:48:35;5.68;;;2.53;;
62362;SDS011;48396;48.426;1.500;2022-12-20T07:51:02;7.70;;;2.50;;
62362;SDS011;48396;48.426;1.500;2022-12-20T07:53:34;5.18;;;2.13;;
62362;SDS011;48396;48.426;1.500;2022-12-20T07:56:04;6.28;;;2.60;;
62362;SDS011;48396;48.426;1.500;2022-12-20T07:58:33;5.72;;;2.22;;
62362;SDS011;48396;48.426;1.500;2022-12-20T08:01:01;4.35;;;2.10;;
62362;SDS011;48396;48.426;1.500;2022-12-20T08:03:34;5.45;;;2.35;;
62362;SDS011;48396;48.426;1.500;2022-12-20T08:06:04;3.70;;;1.80;;
62362;SDS011;48396;48.426;1.500;2022-12-20T08:08:32;3.58;;;2.08;;
62362;SDS011;48396;48.426;1.500;2022-12-20T08:11:02;4.97;;;1.92;;
62362;SDS011;48396;48.426;1.500;2022-12-20T08:13:31;5.68;;;2.33;;
62362;SDS011;48396;48.426;1.500;2022-12-20T08:15:58;6.10;;;2.20;;
62362;SDS011;48396;48.426;1.500;2022-12-20T08:18:24;3.33;;;2.20;;
62362;SDS011;48396;48.426;1.500;2022-12-20T08:20:50;3.33;;;1.85;;
62362;SDS011;48396;48.426;1.500;2022-12-20T08:23:16;4.00;;;1.80;;
62362;SDS011;48396;48.426;1.500;2022-12-20T08:25:43;2.75;;;1.77;;
62362;SDS011;48396;48.426;1.500;2022-12-20T08:28:09;4.60;;;2.00;;
62362;SDS011;48396;48.426;1.500;2022-12-20T08:30:35;5.05;;;1.98;;
62362;SDS011;48396;48.426;1.500;2022-12-20T08:33:01;6.10;;;2.47;;
62362;SDS011;48396;48.426;1.500;2022-12-20T08:35:27;4.15;;;2.10;;
62362;SDS011;48396;48.426;1.500;2022-12-20T08:37:53;5.90;;;2.25;;
62362;SDS011;48396;48.426;1.500;2022-12-20T08:40:19;4.25;;;2.08;;
62362;SDS011;48396;48.426;1.500;2022-12-20T08:42:45;6.63;;;2.35;;
62362;SDS011;48396;48.426;1.500;2022-12-20T08:45:11;5.13;;;2.55;;
62362;SDS011;48396;48.426;1.500;2022-12-20T08:47:37;4.75;;;1.92;;
62362;SDS011;48396;48.426;1.500;2022-12-20T08:50:03;5.47;;;2.17;;
62362;SDS011;48396;48.426;1.500;2022-12-20T08:52:30;6.28;;;2.42;;
62362;SDS011;48396;48.426;1.500;2022-12-20T08:54:55;6.60;;;2.30;;
62362;SDS011;48396;48.426;1.500;2022-12-20T08:57:21;3.97;;;2.42;;
62362;SDS011;48396;48.426;1.500;2022-12-20T08:59:47;6.22;;;2.15;;
62362;SDS011;48396;48.426;1.500;2022-12-20T09:02:13;4.10;;;2.22;;
62362;SDS011;48396;48.426;1.500;2022-12-20T09:04:39;7.53;;;1.77;;
62362;SDS011;48396;48.426;1.500;2022-12-20T09:07:04;5.28;;;2.13;;
62362;SDS011;48396;48.426;1.500;2022-12-20T09:09:30;7.43;;;2.28;;
62362;SDS011;48396;48.426;1.500;2022-12-20T09:11:56;5.82;;;2.10;;
62362;SDS011;48396;48.426;1.500;2022-12-20T09:14:22;4.07;;;2.15;;
62362;SDS011;48396;48.426;1.500;2022-12-20T09:16:48;3.80;;;2.15;;
62362;SDS011;48396;48.426;1.500;2022-12-20T09:19:14;6.45;;;2.22;;
62362;SDS011;48396;48.426;1.500;2022-12-20T09:21:41;3.88;;;2.30;;
62362;SDS011;48396;48.426;1.500;2022-12-20T09:24:07;5.00;;;2.10;;
62362;SDS011;48396;48.426;1.500;2022-12-20T09:26:33;4.05;;;2.20;;
62362;SDS011;48396;48.426;1.500;2022-12-20T09:28:59;7.95;;;2.75;;
62362;SDS011;48396;48.426;1.500;2022-12-20T09:31:29;5.25;;;2.50;;
62362;SDS011;48396;48.426;1.500;2022-12-20T09:33:55;5.20;;;2.22;;
62362;SDS011;48396;48.426;1.500;2022-12-20T09:36:24;4.90;;;2.05;;
62362;SDS011;48396;48.426;1.500;2022-12-20T09:38:52;4.70;;;2.40;;
62362;SDS011;48396;48.426;1.500;2022-12-20T09:43:50;4.75;;;2.55;;
62362;SDS011;48396;48.426;1.500;2022-12-20T09:46:16;4.97;;;2.30;;
62362;SDS011;48396;48.426;1.500;2022-12-20T09:48:43;5.25;;;2.50;;
62362;SDS011;48396;48.426;1.500;2022-12-20T09:55:00;7.55;;;2.88;;
62362;SDS011;48396;48.426;1.500;2022-12-20T09:59:48;6.18;;;2.20;;
62362;SDS011;48396;48.426;1.500;2022-12-20T10:02:14;6.07;;;2.45;;
62362;SDS011;48396;48.426;1.500;2022-12-20T10:04:45;6.72;;;2.75;;
62362;SDS011;48396;48.426;1.500;2022-12-20T10:10:28;5.43;;;2.40;;
62362;SDS011;48396;48.426;1.500;2022-12-20T10:15:48;5.72;;;2.53;;
62362;SDS011;48396;48.426;1.500;2022-12-20T10:23:44;4.85;;;2.08;;
62362;SDS011;48396;48.426;1.500;2022-12-20T10:26:21;4.25;;;2.05;;
62362;SDS011;48396;48.426;1.500;2022-12-20T10:28:47;5.32;;;2.38;;
62362;SDS011;48396;48.426;1.500;2022-12-20T10:31:15;5.38;;;2.00;;
62362;SDS011;48396;48.426;1.500;2022-12-20T10:33:42;5.13;;;2.15;;
62362;SDS011;48396;48.426;1.500;2022-12-20T10:36:23;9.00;;;2.65;;
62362;SDS011;48396;48.426;1.500;2022-12-20T10:39:01;5.75;;;2.63;;
62362;SDS011;48396;48.426;1.500;2022-12-20T10:41:30;7.13;;;2.53;;
62362;SDS011;48396;48.426;1.500;2022-12-20T10:49:45;4.13;;;2.10;;
62362;SDS011;48396;48.426;1.500;2022-12-20T10:54:34;5.93;;;2.20;;
62362;SDS011;48396;48.426;1.500;2022-12-20T10:59:55;4.50;;;2.50;;
62362;SDS011;48396;48.426;1.500;2022-12-20T11:02:30;5.20;;;2.40;;
62362;SDS011;48396;48.426;1.500;2022-12-20T11:05:15;5.25;;;2.60;;
62362;SDS011;48396;48.426;1.500;2022-12-20T11:07:57;3.78;;;2.25;;
62362;SDS011;48396;48.426;1.500;2022-12-20T11:10:26;12.25;;;3.17;;
62362;SDS011;48396;48.426;1.500;2022-12-20T11:12:53;7.00;;;2.47;;
62362;SDS011;48396;48.426;1.500;2022-12-20T11:15:26;4.35;;;2.45;;
62362;SDS011;48396;48.426;1.500;2022-12-20T11:18:00;5.70;;;2.60;;
62362;SDS011;48396;48.426;1.500;2022-12-20T11:23:29;6.00;;;2.47;;
62362;SDS011;48396;48.426;1.500;2022-12-20T11:28:58;6.13;;;2.70;;
62362;SDS011;48396;48.426;1.500;2022-12-20T11:31:41;5.43;;;2.50;;
62362;SDS011;48396;48.426;1.500;2022-12-20T11:42:31;3.53;;;2.38;;
62362;SDS011;48396;48.426;1.500;2022-12-20T11:45:03;4.32;;;2.08;;
62362;SDS011;48396;48.426;1.500;2022-12-20T11:53:30;5.20;;;2.30;;
62362;SDS011;48396;48.426;1.500;2022-12-20T11:55:58;7.53;;;2.28;;
62362;SDS011;48396;48.426;1.500;2022-12-20T12:01:25;7.43;;;2.97;;
62362;SDS011;48396;48.426;1.500;2022-12-20T12:06:58;8.25;;;2.70;;
62362;SDS011;48396;48.426;1.500;2022-12-20T12:09:32;5.53;;;2.53;;
62362;SDS011;48396;48.426;1.500;2022-12-20T12:12:09;5.70;;;2.70;;
62362;SDS011;48396;48.426;1.500;2022-12-20T12:14:49;8.30;;;3.03;;
62362;SDS011;48396;48.426;1.500;2022-12-20T12:17:35;5.28;;;2.78;;
62362;SDS011;48396;48.426;1.500;2022-12-20T12:20:23;4.60;;;2.80;;
62362;SDS011;48396;48.426;1.500;2022-12-20T12:22:59;7.28;;;2.80;;
62362;SDS011;48396;48.426;1.500;2022-12-20T12:25:29;6.85;;;2.78;;
62362;SDS011;48396;48.426;1.500;2022-12-20T12:27:56;4.95;;;2.70;;
62362;SDS011;48396;48.426;1.500;2022-12-20T12:30:22;5.13;;;2.40;;
62362;SDS011;48396;48.426;1.500;2022-12-20T12:45:25;7.35;;;3.10;;
62362;SDS011;48396;48.426;1.500;2022-12-20T12:47:57;6.95;;;3.08;;
62362;SDS011;48396;48.426;1.500;2022-12-20T12:50:32;5.25;;;2.83;;
62362;SDS011;48396;48.426;1.500;2022-12-20T12:53:15;5.63;;;2.83;;
62362;SDS011;48396;48.426;1.500;2022-12-20T12:55:45;6.07;;;2.88;;
62362;SDS011;48396;48.426;1.500;2022-12-20T13:03:37;7.45;;;3.20;;
62362;SDS011;48396;48.426;1.500;2022-12-20T13:11:39;8.30;;;2.90;;
62362;SDS011;48396;48.426;1.500;2022-12-20T13:19:38;9.02;;;3.15;;
62362;SDS011;48396;48.426;1.500;2022-12-20T13:24:59;9.13;;;3.28;;
62362;SDS011;48396;48.426;1.500;2022-12-20T13:27:40;7.20;;;3.20;;
62362;SDS011;48396;48.426;1.500;2022-12-20T13:37:57;6.07;;;2.72;;
62362;SDS011;48396;48.426;1.500;2022-12-20T13:45:45;11.90;;;3.50;;
62362;SDS011;48396;48.426;1.500;2022-12-20T13:48:37;9.00;;;3.03;;
62362;SDS011;48396;48.426;1.500;2022-12-20T13:51:19;8.75;;;3.22;;
62362;SDS011;48396;48.426;1.500;2022-12-20T13:54:03;8.32;;;3.75;;
62362;SDS011;48396;48.426;1.500;2022-12-20T14:01:48;10.88;;;3.40;;
62362;SDS011;48396;48.426;1.500;2022-12-20T14:04:17;7.65;;;3.05;;
62362;SDS011;48396;48.426;1.500;2022-12-20T14:06:44;10.60;;;3.25;;
62362;SDS011;48396;48.426;1.500;2022-12-20T14:09:25;4.07;;;2.80;;
62362;SDS011;48396;48.426;1.500;2022-12-20T14:12:05;8.45;;;2.95;;
62362;SDS011;48396;48.426;1.500;2022-12-20T14:14:37;4.40;;;2.85;;
62362;SDS011;48396;48.426;1.500;2022-12-20T14:17:14;9.60;;;2.95;;
62362;SDS011;48396;48.426;1.500;2022-12-20T14:20:01;9.85;;;3.17;;
62362;SDS011;48396;48.426;1.500;2022-12-20T14:22:29;6.55;;;3.03;;
62362;SDS011;48396;48.426;1.500;2022-12-20T14:24:55;6.65;;;3.03;;
62362;SDS011;48396;48.426;1.500;2022-12-20T14:27:21;12.00;;;3.78;;
62362;SDS011;48396;48.426;1.500;2022-12-20T14:29:57;9.85;;;3.10;;
62362;SDS011;48396;48.426;1.500;2022-12-20T14:32:24;8.32;;;3.28;;
62362;SDS011;48396;48.426;1.500;2022-12-20T14:34:50;8.60;;;3.33;;
62362;SDS011;48396;48.426;1.500;2022-12-20T14:37:31;7.68;;;3.00;;
62362;SDS011;48396;48.426;1.500;2022-12-20T14:42:35;7.45;;;3.00;;
62362;SDS011;48396;48.426;1.500;2022-12-20T14:45:03;6.18;;;2.80;;
62362;SDS011;48396;48.426;1.500;2022-12-20T14:47:31;9.68;;;3.13;;
62362;SDS011;48396;48.426;1.500;2022-12-20T14:50:01;6.10;;;3.20;;
62362;SDS011;48396;48.426;1.500;2022-12-20T14:52:33;13.70;;;3.15;;
62362;SDS011;48396;48.426;1.500;2022-12-20T14:55:05;10.80;;;3.63;;
62362;SDS011;48396;48.426;1.500;2022-12-20T14:57:44;8.55;;;3.10;;
62362;SDS011;48396;48.426;1.500;2022-12-20T15:00:19;8.20;;;3.42;;
62362;SDS011;48396;48.426;1.500;2022-12-20T15:13:34;7.60;;;3.17;;
62362;SDS011;48396;48.426;1.500;2022-12-20T15:16:03;6.07;;;2.92;;
62362;SDS011;48396;48.426;1.500;2022-12-20T15:18:37;9.35;;;3.42;;
62362;SDS011;48396;48.426;1.500;2022-12-20T15:21:04;10.18;;;3.92;;
62362;SDS011;48396;48.426;1.500;2022-12-20T15:23:38;7.65;;;2.97;;
62362;SDS011;48396;48.426;1.500;2022-12-20T15:26:11;7.88;;;3.03;;
62362;SDS011;48396;48.426;1.500;2022-12-20T15:28:42;7.07;;;2.90;;
62362;SDS011;48396;48.426;1.500;2022-12-20T15:31:12;7.78;;;3.15;;
62362;SDS011;48396;48.426;1.500;2022-12-20T15:33:40;8.38;;;3.70;;
62362;SDS011;48396;48.426;1.500;2022-12-20T15:36:12;9.07;;;3.40;;
62362;SDS011;48396;48.426;1.500;2022-12-20T15:38:45;8.63;;;3.50;;
62362;SDS011;48396;48.426;1.500;2022-12-20T15:41:24;6.35;;;3.15;;
62362;SDS011;48396;48.426;1.500;2022-12-20T15:43:56;8.07;;;3.35;;
62362;SDS011;48396;48.426;1.500;2022-12-20T15:46:29;10.65;;;3.40;;
62362;SDS011;48396;48.426;1.500;2022-12-20T15:48:55;6.25;;;3.20;;
62362;SDS011;48396;48.426;1.500;2022-12-20T15:53:58;6.65;;;3.10;;
62362;SDS011;48396;48.426;1.500;2022-12-20T15:56:26;9.13;;;3.10;;
62362;SDS011;48396;48.426;1.500;2022-12-20T15:58:52;8.73;;;3.30;;
62362;SDS011;48396;48.426;1.500;2022-12-20T16:01:29;6.85;;;3.38;;
62362;SDS011;48396;48.426;1.500;2022-12-20T16:04:01;6.70;;;3.03;;
62362;SDS011;48396;48.426;1.500;2022-12-20T16:06:28;9.57;;;3.30;;
62362;SDS011;48396;48.426;1.500;2022-12-20T16:08:54;9.32;;;3.67;;
62362;SDS011;48396;48.426;1.500;2022-12-20T16:11:21;5.40;;;3.20;;
62362;SDS011;48396;48.426;1.500;2022-12-20T16:13:48;7.30;;;3.50;;
62362;SDS011;48396;48.426;1.500;2022-12-20T16:16:19;6.22;;;3.35;;
62362;SDS011;48396;48.426;1.500;2022-12-20T16:18:47;7.97;;;3.70;;
62362;SDS011;48396;48.426;1.500;2022-12-20T16:21:17;9.98;;;3.75;;
62362;SDS011;48396;48.426;1.500;2022-12-20T16:23:47;11.80;;;4.38;;
62362;SDS011;48396;48.426;1.500;2022-12-20T16:26:15;8.38;;;3.72;;
62362;SDS011;48396;48.426;1.500;2022-12-20T16:28:44;10.73;;;4.00;;
62362;SDS011;48396;48.426;1.500;2022-12-20T16:33:50;9.18;;;3.53;;
62362;SDS011;48396;48.426;1.500;2022-12-20T16:36:16;10.60;;;4.07;;
62362;SDS011;48396;48.426;1.500;2022-12-20T16:38:42;12.43;;;3.97;;
62362;SDS011;48396;48.426;1.500;2022-12-20T16:41:13;9.02;;;3.78;;
62362;SDS011;48396;48.426;1.500;2022-12-20T16:43:40;12.05;;;3.83;;
62362;SDS011;48396;48.426;1.500;2022-12-20T16:46:10;9.10;;;3.67;;
62362;SDS011;48396;48.426;1.500;2022-12-20T16:48:37;8.55;;;3.80;;
62362;SDS011;48396;48.426;1.500;2022-12-20T16:51:03;6.45;;;3.15;;
62362;SDS011;48396;48.426;1.500;2022-12-20T16:53:38;9.65;;;3.30;;
62362;SDS011;48396;48.426;1.500;2022-12-20T16:56:04;8.98;;;3.55;;
62362;SDS011;48396;48.426;1.500;2022-12-20T16:58:30;8.10;;;3.35;;
62362;SDS011;48396;48.426;1.500;2022-12-20T17:00:56;9.35;;;3.70;;
62362;SDS011;48396;48.426;1.500;2022-12-20T17:03:22;8.65;;;3.90;;
62362;SDS011;48396;48.426;1.500;2022-12-20T17:05:48;11.50;;;3.80;;
62362;SDS011;48396;48.426;1.500;2022-12-20T17:08:15;7.00;;;3.33;;
62362;SDS011;48396;48.426;1.500;2022-12-20T17:10:40;9.23;;;3.35;;
62362;SDS011;48396;48.426;1.500;2022-12-20T17:13:08;10.95;;;3.58;;
62362;SDS011;48396;48.426;1.500;2022-12-20T17:15:35;8.02;;;3.60;;
62362;SDS011;48396;48.426;1.500;2022-12-20T17:18:03;9.40;;;3.75;;
62362;SDS011;48396;48.426;1.500;2022-12-20T17:20:30;9.73;;;3.40;;
62362;SDS011;48396;48.426;1.500;2022-12-20T17:22:56;8.88;;;3.55;;
62362;SDS011;48396;48.426;1.500;2022-12-20T17:25:23;8.55;;;3.55;;
62362;SDS011;48396;48.426;1.500;2022-12-20T17:27:50;8.23;;;3.58;;